createdAt,value
2018-11-02T00:02:18.111Z,0.93
2018-11-02T00:04:46.595Z,1.40
2018-11-02T00:07:15.049Z,1.10
2018-11-02T00:09:43.506Z,1.20
2018-11-02T00:12:12.005Z,1.10
2018-11-02T00:14:40.398Z,1.47
2018-11-02T00:17:08.913Z,1.13
2018-11-02T00:19:37.309Z,2.67
2018-11-02T00:22:06.274Z,1.20
2018-11-02T00:24:34.715Z,4.63
2018-11-02T00:27:03.180Z,1.20
2018-11-02T00:29:32.749Z,1.10
2018-11-02T00:32:01.299Z,1.23
2018-11-02T00:34:31.162Z,1.30
2018-11-02T00:36:59.576Z,1.07
2018-11-02T00:39:28.037Z,1.90
2018-11-02T00:41:56.450Z,1.93
2018-11-02T00:44:24.897Z,1.67
2018-11-02T00:46:53.321Z,1.20
2018-11-02T00:49:21.757Z,1.30
2018-11-02T00:51:50.206Z,1.10
2018-11-02T00:54:18.703Z,1.90
2018-11-02T00:56:47.149Z,1.30
2018-11-02T00:59:15.680Z,2.07
2018-11-02T01:01:44.114Z,2.23
2018-11-02T01:04:12.581Z,4.63
2018-11-02T01:06:41.031Z,4.30
2018-11-02T01:09:10.773Z,1.10
2018-11-02T01:11:39.541Z,2.60
2018-11-02T01:14:08.159Z,2.33
2018-11-02T01:16:36.595Z,4.13
2018-11-02T01:19:05.865Z,3.73
2018-11-02T01:21:34.587Z,3.30
2018-11-02T01:24:03.289Z,4.43
2018-11-02T01:26:31.733Z,4.20
2018-11-02T01:29:00.222Z,5.53
2018-11-02T01:31:28.697Z,2.60
2018-11-02T01:33:57.131Z,4.00
2018-11-02T01:36:25.679Z,6.07
2018-11-02T01:38:54.129Z,3.17
2018-11-02T01:41:22.639Z,3.90
2018-11-02T01:43:51.039Z,5.30
2018-11-02T01:46:19.493Z,4.53
2018-11-02T01:48:47.961Z,3.73
2018-11-02T01:51:16.489Z,4.17
2018-11-02T01:53:44.933Z,4.13
2018-11-02T01:56:13.371Z,6.40
2018-11-02T01:58:41.845Z,4.23
2018-11-02T02:01:10.293Z,3.90
2018-11-02T02:03:38.726Z,4.07
2018-11-02T02:06:07.171Z,5.63
2018-11-02T02:08:35.901Z,5.10
2018-11-02T02:11:04.745Z,3.57
2018-11-02T02:13:33.183Z,4.43
2018-11-02T02:16:01.746Z,5.00
2018-11-02T02:18:30.190Z,6.50
2018-11-02T02:20:58.633Z,4.50
2018-11-02T02:23:27.109Z,6.20
2018-11-02T02:25:55.513Z,4.50
2018-11-02T02:28:23.974Z,6.63
2018-11-02T02:30:52.426Z,6.10
2018-11-02T02:33:20.922Z,5.53
2018-11-02T02:35:49.390Z,4.50
2018-11-02T02:38:17.845Z,5.83
2018-11-02T02:40:46.261Z,7.37
2018-11-02T02:43:14.729Z,6.00
2018-11-02T02:45:43.179Z,6.50
2018-11-02T02:48:11.628Z,6.03
2018-11-02T02:50:40.037Z,6.70
2018-11-02T02:53:08.475Z,6.47
2018-11-02T02:55:36.933Z,7.33
2018-11-02T02:58:05.651Z,7.37
2018-11-02T03:00:36.667Z,9.33
2018-11-02T03:03:05.921Z,7.90
2018-11-02T03:05:34.357Z,9.10
2018-11-02T03:08:02.795Z,8.47
2018-11-02T03:10:31.306Z,10.63
2018-11-02T03:12:59.680Z,11.23
2018-11-02T03:15:28.082Z,7.77
2018-11-02T03:17:56.481Z,10.50
2018-11-02T03:20:24.934Z,8.30
2018-11-02T03:22:53.329Z,8.93
2018-11-02T03:25:21.771Z,9.07
2018-11-02T03:27:50.615Z,8.83
2018-11-02T03:30:19.017Z,10.53
2018-11-02T03:32:47.431Z,10.77
2018-11-02T03:35:15.858Z,12.40
2018-11-02T03:37:44.311Z,11.20
2018-11-02T03:40:12.730Z,12.10
2018-11-02T03:42:41.486Z,10.53
2018-11-02T03:45:10.036Z,13.03
2018-11-02T03:47:38.460Z,9.23
2018-11-02T03:50:07.981Z,11.17
2018-11-02T03:52:36.386Z,12.07
2018-11-02T03:55:04.923Z,14.97
2018-11-02T03:57:33.376Z,11.90
2018-11-02T04:00:01.761Z,12.00
2018-11-02T04:02:30.209Z,13.47
2018-11-02T04:04:58.617Z,12.20
2018-11-02T04:07:27.093Z,11.67
2018-11-02T04:09:55.524Z,13.73
2018-11-02T04:12:23.953Z,14.60
2018-11-02T04:14:52.445Z,14.03
2018-11-02T04:17:20.865Z,15.03
2018-11-02T04:19:49.326Z,15.53
2018-11-02T04:22:17.746Z,13.57
2018-11-02T04:24:46.157Z,13.60
2018-11-02T04:27:14.617Z,15.53
2018-11-02T04:29:43.058Z,13.07
2018-11-02T04:32:11.574Z,14.97
2018-11-02T04:34:40.038Z,15.50
2018-11-02T04:37:08.499Z,16.30
2018-11-02T04:39:36.997Z,19.67
2018-11-02T04:42:05.498Z,14.37
2018-11-02T04:44:33.964Z,13.57
2018-11-02T04:47:02.526Z,13.80
2018-11-02T04:49:30.942Z,14.17
2018-11-02T04:51:59.394Z,14.07
2018-11-02T04:54:27.831Z,15.33
2018-11-02T04:56:56.332Z,13.73
2018-11-02T04:59:24.749Z,15.37
2018-11-02T05:01:53.174Z,15.13
2018-11-02T05:04:21.639Z,13.50
2018-11-02T05:06:50.108Z,17.43
2018-11-02T05:09:18.578Z,17.50
2018-11-02T05:11:47.015Z,18.73
2018-11-02T05:14:15.965Z,16.27
2018-11-02T05:16:44.417Z,18.23
2018-11-02T05:19:13.018Z,16.37
2018-11-02T05:21:41.514Z,21.80
2018-11-02T05:24:09.928Z,21.90
2018-11-02T05:26:38.366Z,20.97
2018-11-02T05:29:06.847Z,17.87
2018-11-02T05:31:35.299Z,20.50
2018-11-02T05:34:03.741Z,20.90
2018-11-02T05:36:32.178Z,20.90
2018-11-02T05:39:00.614Z,22.50
2018-11-02T05:41:29.066Z,20.77
2018-11-02T05:43:57.493Z,23.37
2018-11-02T05:46:25.964Z,19.67
2018-11-02T05:48:54.432Z,20.67
2018-11-02T05:51:22.857Z,22.37
2018-11-02T05:53:51.325Z,21.73
2018-11-02T05:56:19.762Z,19.50
2018-11-02T05:58:48.178Z,15.30
2018-11-02T06:01:16.618Z,20.13
2018-11-02T06:03:45.118Z,22.00
2018-11-02T06:06:13.646Z,17.97
2018-11-02T06:08:42.071Z,21.50
2018-11-02T06:11:10.906Z,18.83
2018-11-02T06:13:39.959Z,17.70
2018-11-02T06:16:08.567Z,18.27
2018-11-02T06:18:37.283Z,19.73
2018-11-02T06:21:06.313Z,16.87
2018-11-02T06:23:34.769Z,18.33
2018-11-02T06:26:03.242Z,18.00
2018-11-02T06:28:31.735Z,16.47
2018-11-02T06:31:00.248Z,16.00
2018-11-02T06:33:29.099Z,19.93
2018-11-02T06:35:57.544Z,21.33
2018-11-02T06:38:25.961Z,20.90
2018-11-02T06:40:54.400Z,22.00
2018-11-02T06:43:22.897Z,17.97
2018-11-02T06:45:51.336Z,18.47
2018-11-02T06:48:19.784Z,22.57
2018-11-02T06:50:48.231Z,19.77
2018-11-02T06:53:16.691Z,20.23
2018-11-02T06:55:45.511Z,18.80
2018-11-02T06:58:13.961Z,20.57
2018-11-02T07:00:42.527Z,18.77
2018-11-02T07:03:10.942Z,18.97
2018-11-02T07:05:39.399Z,22.23
2018-11-02T07:08:08.825Z,23.60
2018-11-02T07:10:37.050Z,20.53
2018-11-02T07:13:05.565Z,22.60
2018-11-02T07:15:34.053Z,17.23
2018-11-02T07:18:02.569Z,18.17
2018-11-02T07:20:31.022Z,19.77
2018-11-02T07:22:59.486Z,17.93
2018-11-02T07:25:28.006Z,17.90
2018-11-02T07:27:56.440Z,20.53
2018-11-02T07:30:24.889Z,21.23
2018-11-02T07:32:53.338Z,24.50
2018-11-02T07:35:21.895Z,19.50
2018-11-02T07:37:50.322Z,22.87
2018-11-02T07:40:18.729Z,22.33
2018-11-02T07:42:47.181Z,22.03
2018-11-02T07:45:15.634Z,25.10
2018-11-02T07:47:44.165Z,18.80
2018-11-02T07:50:13.654Z,19.17
2018-11-02T07:52:42.210Z,22.00
2018-11-02T07:55:12.457Z,26.13
2018-11-02T07:57:40.957Z,20.47
2018-11-02T08:00:12.275Z,21.23
2018-11-02T08:02:42.502Z,27.30
2018-11-02T08:05:11.078Z,30.03
2018-11-02T08:07:39.509Z,20.80
2018-11-02T08:10:08.859Z,20.77
2018-11-02T08:12:37.417Z,23.40
2018-11-02T08:15:07.778Z,25.43
2018-11-02T08:17:36.283Z,23.27
2018-11-02T08:20:05.279Z,23.03
2018-11-02T08:22:40.136Z,24.47
2018-11-02T08:25:09.782Z,27.03
2018-11-02T08:27:38.373Z,25.57
2018-11-02T08:30:08.174Z,24.13
2018-11-02T08:32:36.891Z,27.23
2018-11-02T08:35:07.619Z,26.73
2018-11-02T08:37:36.258Z,22.30
2018-11-02T08:40:05.077Z,26.00
2018-11-02T08:42:33.558Z,27.80
2018-11-02T08:45:03.130Z,28.57
2018-11-02T08:47:31.596Z,23.43
2018-11-02T08:50:00.093Z,26.53
2018-11-02T08:52:28.532Z,32.30
2018-11-02T08:54:57.022Z,24.27
2018-11-02T08:57:26.260Z,18.60
2018-11-02T08:59:54.723Z,21.10
2018-11-02T09:02:23.190Z,19.13
2018-11-02T09:04:51.653Z,25.13
2018-11-02T09:07:20.081Z,32.00
2018-11-02T09:09:48.526Z,21.53
2018-11-02T09:12:17.141Z,27.20
2018-11-02T09:14:45.486Z,20.70
2018-11-02T09:17:13.922Z,35.70
2018-11-02T09:19:42.370Z,29.17
2018-11-02T09:22:10.798Z,34.20
2018-11-02T09:24:39.269Z,29.07
2018-11-02T09:27:07.749Z,33.93
2018-11-02T09:29:36.193Z,23.27
2018-11-02T09:32:05.103Z,29.50
2018-11-02T09:34:33.536Z,28.57
2018-11-02T09:37:02.010Z,16.97
2018-11-02T09:39:30.490Z,28.87
2018-11-02T09:41:58.910Z,31.20
2018-11-02T09:44:27.375Z,26.50
2018-11-02T09:46:55.815Z,42.80
2018-11-02T09:49:24.299Z,21.50
2018-11-02T09:51:52.835Z,13.20
2018-11-02T09:54:21.277Z,12.83
2018-11-02T09:56:49.798Z,31.07
2018-11-02T09:59:18.246Z,25.00
2018-11-02T10:01:46.745Z,23.40
2018-11-02T10:04:15.185Z,16.73
2018-11-02T10:06:43.645Z,13.40
2018-11-02T10:09:13.138Z,13.00
2018-11-02T10:11:41.634Z,16.63
2018-11-02T10:14:11.178Z,12.17
2018-11-02T10:16:40.935Z,11.00
2018-11-02T10:19:09.649Z,10.33
2018-11-02T10:21:38.359Z,13.30
2018-11-02T10:24:07.329Z,15.20
2018-11-02T10:26:35.849Z,9.30
2018-11-02T10:29:04.788Z,11.40
2018-11-02T10:31:33.300Z,12.37
2018-11-02T10:34:02.473Z,10.13
2018-11-02T10:36:31.333Z,9.57
2018-11-02T10:39:01.076Z,8.43
2018-11-02T10:41:35.433Z,17.43
2018-11-02T10:44:04.232Z,8.60
2018-11-02T10:46:32.769Z,11.20
2018-11-02T10:49:01.214Z,6.70
2018-11-02T10:51:29.673Z,8.57
2018-11-02T10:53:58.168Z,7.77
2018-11-02T10:56:26.737Z,8.70
2018-11-02T10:58:55.134Z,10.00
2018-11-02T11:01:28.901Z,9.73
2018-11-02T11:03:57.488Z,7.13
2018-11-02T11:06:25.966Z,7.10
2018-11-02T11:08:54.477Z,7.33
2018-11-02T11:11:23.915Z,6.13
2018-11-02T11:13:52.355Z,7.73
2018-11-02T11:16:20.833Z,8.47
2018-11-02T11:18:49.292Z,6.10
2018-11-02T11:21:17.807Z,8.50
2018-11-02T11:23:46.255Z,8.73
2018-11-02T11:26:14.748Z,7.87
2018-11-02T11:28:43.200Z,6.00
2018-11-02T11:31:11.664Z,7.20
2018-11-02T11:33:40.125Z,5.73
2018-11-02T11:36:09.899Z,6.77
2018-11-02T11:38:38.451Z,5.13
2018-11-02T11:41:06.957Z,6.23
2018-11-02T11:43:35.461Z,5.17
2018-11-02T11:46:03.998Z,5.23
2018-11-02T11:51:07.293Z,4.77
2018-11-02T11:53:36.042Z,5.60
2018-11-02T11:56:04.850Z,5.33
2018-11-02T11:58:33.343Z,4.53
2018-11-02T12:01:02.494Z,4.73
2018-11-02T12:03:31.065Z,5.87
2018-11-02T12:05:59.577Z,5.73
2018-11-02T12:08:28.091Z,2.77
2018-11-02T12:10:56.594Z,3.30
2018-11-02T12:13:25.142Z,2.73
2018-11-02T12:15:53.630Z,4.70
2018-11-02T12:18:22.237Z,3.60
2018-11-02T12:20:50.924Z,3.83
2018-11-02T12:23:19.560Z,5.80
2018-11-02T12:25:47.954Z,3.63
2018-11-02T12:28:16.512Z,3.47
2018-11-02T12:30:44.899Z,5.80
2018-11-02T12:33:13.315Z,6.20
2018-11-02T12:35:41.907Z,4.30
2018-11-02T12:38:10.362Z,6.07
2018-11-02T12:40:38.920Z,4.53
2018-11-02T12:43:07.325Z,3.87
2018-11-02T12:45:35.812Z,3.53
2018-11-02T12:48:04.436Z,4.93
2018-11-02T12:50:32.849Z,3.20
2018-11-02T12:53:03.828Z,6.73
2018-11-02T12:55:32.270Z,5.03
2018-11-02T12:58:00.734Z,5.00
2018-11-02T13:00:29.509Z,4.33
2018-11-02T13:02:58.096Z,3.90
2018-11-02T13:05:26.554Z,3.20
2018-11-02T13:07:55.007Z,3.83
2018-11-02T13:10:23.926Z,3.47
2018-11-02T13:12:53.078Z,3.23
2018-11-02T13:15:22.820Z,2.37
2018-11-02T13:17:53.495Z,4.50
2018-11-02T13:20:22.093Z,1.37
2018-11-02T13:22:50.938Z,3.70
2018-11-02T13:25:20.677Z,5.17
2018-11-02T13:27:50.420Z,4.27
2018-11-02T13:30:19.326Z,6.93
2018-11-02T13:32:47.850Z,2.20
2018-11-02T13:35:17.542Z,4.03
2018-11-02T13:37:46.417Z,3.77
2018-11-02T13:40:16.049Z,3.87
2018-11-02T13:42:45.462Z,3.17
2018-11-02T13:45:15.253Z,5.73
2018-11-02T13:47:44.142Z,2.73
2018-11-02T13:50:13.045Z,9.30
2018-11-02T13:52:42.123Z,7.67
2018-11-02T13:55:11.429Z,12.47
2018-11-02T13:57:40.151Z,18.83
2018-11-02T14:00:11.878Z,9.23
2018-11-02T14:02:40.370Z,18.90
2018-11-02T14:05:10.671Z,8.43
2018-11-02T14:07:39.153Z,10.37
2018-11-02T14:10:08.768Z,3.40
2018-11-02T14:12:37.201Z,8.90
2018-11-02T14:15:07.678Z,10.00
2018-11-02T14:17:36.125Z,5.63
2018-11-02T14:20:05.753Z,7.03
2018-11-02T14:22:34.187Z,2.83
2018-11-02T14:25:02.697Z,6.73
2018-11-02T14:27:31.181Z,7.60
2018-11-02T14:29:59.624Z,8.67
2018-11-02T14:32:28.104Z,10.30
2018-11-02T14:34:56.646Z,6.60
2018-11-02T14:37:25.139Z,3.87
2018-11-02T14:39:54.210Z,5.10
2018-11-02T14:42:22.623Z,1.90
2018-11-02T14:44:51.149Z,3.50
2018-11-02T14:47:19.609Z,2.87
2018-11-02T14:49:48.049Z,4.03
2018-11-02T14:52:16.523Z,5.33
2018-11-02T14:54:44.986Z,4.67
2018-11-02T14:57:13.546Z,10.60
2018-11-02T14:59:42.208Z,4.60
2018-11-02T15:02:10.757Z,3.30
2018-11-02T15:04:39.885Z,4.63
2018-11-02T15:07:08.424Z,5.67
2018-11-02T15:09:36.923Z,3.47
2018-11-02T15:12:05.852Z,4.53
2018-11-02T15:14:34.430Z,2.57
2018-11-02T15:17:02.972Z,3.83
2018-11-02T15:19:31.483Z,3.03
2018-11-02T15:21:59.934Z,3.93
2018-11-02T15:24:28.414Z,4.13
2018-11-02T15:26:56.831Z,2.97
2018-11-02T15:29:25.346Z,3.63
2018-11-02T15:31:53.797Z,5.33
2018-11-02T15:34:22.274Z,4.97
2018-11-02T15:36:50.807Z,7.33
2018-11-02T15:39:20.498Z,3.47
2018-11-02T15:41:48.978Z,4.47
2018-11-02T15:44:17.433Z,4.90
2018-11-02T15:46:45.881Z,4.67
2018-11-02T15:49:14.546Z,4.47
2018-11-02T15:51:43.046Z,4.30
2018-11-02T15:54:11.744Z,6.73
2018-11-02T15:56:40.254Z,7.93
2018-11-02T15:59:08.747Z,7.10
2018-11-02T16:01:37.334Z,3.97
2018-11-02T16:04:06.120Z,4.80
2018-11-02T16:06:34.713Z,9.13
2018-11-02T16:09:03.420Z,4.97
2018-11-02T16:11:32.208Z,4.70
2018-11-02T16:14:00.763Z,5.80
2018-11-02T16:16:29.193Z,4.13
2018-11-02T16:18:57.657Z,8.67
2018-11-02T16:21:26.126Z,8.87
2018-11-02T16:23:54.581Z,8.17
2018-11-02T16:26:23.122Z,8.27
2018-11-02T16:28:51.618Z,11.43
2018-11-02T16:31:20.069Z,11.43
2018-11-02T16:33:48.541Z,10.73
2018-11-02T16:36:17.044Z,7.47
2018-11-02T16:38:45.599Z,7.40
2018-11-02T16:41:14.112Z,6.63
2018-11-02T16:43:42.632Z,10.20
2018-11-02T16:46:11.001Z,7.67
2018-11-02T16:48:39.465Z,8.43
2018-11-02T16:51:08.650Z,9.70
2018-11-02T16:53:37.109Z,7.47
2018-11-02T16:56:05.788Z,9.10
2018-11-02T16:58:34.374Z,9.53
2018-11-02T17:01:02.868Z,10.33
2018-11-02T17:03:31.353Z,8.43
2018-11-02T17:05:59.924Z,9.90
2018-11-02T17:08:28.367Z,14.10
2018-11-02T17:10:56.842Z,11.20
2018-11-02T17:13:25.358Z,11.27
2018-11-02T17:15:53.771Z,11.47
2018-11-02T17:18:22.877Z,13.03
2018-11-02T17:20:51.295Z,15.10
2018-11-02T17:23:19.728Z,18.57
2018-11-02T17:25:48.204Z,20.77
2018-11-02T17:28:16.681Z,18.80
2018-11-02T17:30:45.128Z,18.60
2018-11-02T17:33:13.645Z,17.97
2018-11-02T17:35:42.106Z,18.37
2018-11-02T17:38:10.597Z,23.33
2018-11-02T17:40:39.042Z,12.43
2018-11-02T17:43:07.500Z,14.93
2018-11-02T17:45:35.964Z,14.67
2018-11-02T17:48:04.569Z,13.03
2018-11-02T17:50:33.013Z,18.40
2018-11-02T17:53:01.465Z,10.37
2018-11-02T17:55:29.925Z,13.03
2018-11-02T17:57:58.381Z,9.10
2018-11-02T18:00:26.869Z,8.73
2018-11-02T18:02:55.346Z,11.00
2018-11-02T18:05:23.770Z,11.93
2018-11-02T18:07:52.220Z,8.67
2018-11-02T18:10:20.673Z,7.80
2018-11-02T18:12:49.111Z,10.20
2018-11-02T18:15:17.536Z,8.40
2018-11-02T18:17:46.001Z,13.20
2018-11-02T18:20:15.514Z,10.90
2018-11-02T18:22:43.948Z,9.50
2018-11-02T18:25:12.803Z,9.27
2018-11-02T18:27:41.710Z,10.20
2018-11-02T18:30:11.374Z,10.03
2018-11-02T18:32:39.970Z,10.10
2018-11-02T18:35:09.453Z,10.13
2018-11-02T18:37:37.875Z,10.67
2018-11-02T18:40:08.705Z,10.10
2018-11-02T18:42:37.381Z,12.27
2018-11-02T18:45:07.822Z,10.43
2018-11-02T18:47:43.788Z,13.33
2018-11-02T18:50:13.098Z,12.63
2018-11-02T18:52:41.574Z,11.70
2018-11-02T18:55:10.082Z,11.33
2018-11-02T18:57:38.920Z,12.03
2018-11-02T19:00:08.853Z,12.37
2018-11-02T19:02:37.354Z,10.47
2018-11-02T19:05:07.985Z,13.47
2018-11-02T19:07:36.474Z,13.97
2018-11-02T19:10:05.205Z,13.57
2018-11-02T19:12:33.683Z,15.00
2018-11-02T19:15:02.182Z,13.83
2018-11-02T19:17:30.703Z,15.53
2018-11-02T19:19:59.334Z,16.53
2018-11-02T19:22:28.051Z,14.57
2018-11-02T19:24:56.529Z,18.50
2018-11-02T19:27:25.083Z,19.83
2018-11-02T19:29:53.525Z,18.33
2018-11-02T19:32:22.261Z,17.63
2018-11-02T19:34:51.018Z,14.67
2018-11-02T19:37:19.384Z,18.03
2018-11-02T19:39:47.888Z,28.43
2018-11-02T19:42:16.414Z,29.43
2018-11-02T19:44:45.059Z,29.47
2018-11-02T19:47:13.635Z,38.00
2018-11-02T19:49:42.188Z,40.17
2018-11-02T19:52:10.768Z,28.07
2018-11-02T19:54:39.327Z,19.63
2018-11-02T19:57:07.895Z,16.47
2018-11-02T19:59:36.418Z,15.13
2018-11-02T20:02:06.099Z,15.93
2018-11-02T20:04:34.714Z,15.33
2018-11-02T20:07:03.321Z,17.10
2018-11-02T20:09:32.007Z,15.27
2018-11-02T20:12:00.737Z,17.03
2018-11-02T20:14:29.562Z,12.30
2018-11-02T20:16:58.438Z,13.23
2018-11-02T20:19:27.442Z,17.13
2018-11-02T20:21:56.035Z,15.53
2018-11-02T20:24:24.527Z,16.37
2018-11-02T20:26:53.151Z,12.83
2018-11-02T20:29:22.632Z,14.20
2018-11-02T20:31:51.292Z,14.80
2018-11-02T20:34:20.077Z,14.47
2018-11-02T20:36:48.675Z,12.83
2018-11-02T20:39:17.240Z,12.83
2018-11-02T20:41:45.734Z,15.33
2018-11-02T20:44:14.257Z,11.67
2018-11-02T20:46:42.842Z,13.47
2018-11-02T20:49:11.416Z,9.93
2018-11-02T20:51:39.907Z,10.37
2018-11-02T20:54:08.529Z,13.07
2018-11-02T20:56:37.976Z,18.33
2018-11-02T20:59:06.522Z,12.77
2018-11-02T21:01:35.004Z,13.43
2018-11-02T21:04:03.563Z,14.50
2018-11-02T21:06:32.050Z,13.40
2018-11-02T21:09:00.969Z,16.40
2018-11-02T21:11:29.352Z,19.57
2018-11-02T21:13:58.098Z,13.33
2018-11-02T21:16:27.530Z,14.07
2018-11-02T21:18:56.045Z,15.93
2018-11-02T21:21:24.631Z,15.07
2018-11-02T21:23:53.191Z,21.97
2018-11-02T21:26:21.731Z,17.40
2018-11-02T21:28:50.387Z,12.53
2018-11-02T21:31:19.146Z,16.33
2018-11-02T21:33:47.878Z,13.33
2018-11-02T21:36:16.418Z,12.63
2018-11-02T21:38:45.600Z,16.33
2018-11-02T21:41:20.351Z,13.50
2018-11-02T21:43:51.668Z,12.53
2018-11-02T21:46:20.251Z,15.80
2018-11-02T21:48:48.797Z,11.20
2018-11-02T21:51:17.326Z,12.90
2018-11-02T21:53:45.852Z,12.57
2018-11-02T21:56:14.382Z,11.20
2018-11-02T21:58:43.053Z,13.53
2018-11-02T22:01:11.968Z,12.17
2018-11-02T22:03:40.486Z,11.90
2018-11-02T22:06:09.001Z,16.20
2018-11-02T22:08:37.557Z,13.17
2018-11-02T22:11:06.119Z,11.60
2018-11-02T22:13:34.575Z,10.47
2018-11-02T22:16:03.066Z,13.67
2018-11-02T22:18:31.604Z,15.63
2018-11-02T22:21:00.065Z,11.00
2018-11-02T22:23:28.543Z,13.80
2018-11-02T22:25:57.026Z,11.33
2018-11-02T22:28:25.485Z,12.17
2018-11-02T22:30:54.083Z,14.70
2018-11-02T22:33:22.493Z,14.10
2018-11-02T22:35:50.984Z,16.03
2018-11-02T22:38:19.494Z,11.90
2018-11-02T22:40:47.988Z,13.00
2018-11-02T22:43:16.518Z,16.53
2018-11-02T22:45:45.041Z,10.60
2018-11-02T22:48:18.870Z,11.53
2018-11-02T22:50:55.446Z,15.00
2018-11-02T22:53:24.321Z,13.30
2018-11-02T22:55:53.087Z,13.60
2018-11-02T22:58:21.546Z,13.47
2018-11-02T23:00:55.466Z,13.90
2018-11-02T23:03:23.972Z,11.10
2018-11-02T23:05:52.553Z,11.33
2018-11-02T23:08:21.086Z,12.70
2018-11-02T23:10:49.557Z,12.43
2018-11-02T23:13:18.008Z,15.37
2018-11-02T23:15:46.592Z,12.47
2018-11-02T23:18:15.077Z,12.93
2018-11-02T23:20:43.569Z,15.07
2018-11-02T23:23:12.015Z,14.90
2018-11-02T23:25:40.468Z,15.37
2018-11-02T23:28:08.980Z,11.73
2018-11-02T23:30:37.533Z,11.83
2018-11-02T23:33:06.063Z,13.53
2018-11-02T23:35:34.511Z,11.90
2018-11-02T23:38:02.987Z,13.20
2018-11-02T23:40:31.485Z,16.03
2018-11-02T23:42:59.974Z,9.23
2018-11-02T23:45:28.506Z,13.53
2018-11-02T23:48:01.216Z,16.53
2018-11-02T23:50:29.778Z,12.17
2018-11-02T23:52:58.304Z,17.00
2018-11-02T23:55:26.815Z,12.67
2018-11-02T23:57:55.325Z,13.87
